Flight Number: EUR3006 Duration: 11:00
Departure: Frankfurt Airport (EDDF) at 08:00 Distance: 5335 Nm
Arrival: Vancouver Airport (CYVR) at 19:00 Equipment: B747

Weather Information
Frankfurt / M-Flughafen, Germany (EDDF) 50-03N 008-36E 113M Sep 21, 2017 - 09:50 AM EDT / 2017.09.21 1350 UTC
Wind: Variable at 3 MPH (3 KT):0
Visibility: greater than 7 mile(s):0
Sky conditions: partly cloudy Temperature: 66 F (19 C) Dew Point: 46 F (8 C) Relative Humidity: 48% Pressure (altimeter): 30.12 in. Hg (1020 hPa)
ob: EDDF 211350Z VRB03KT 9999 FEW038 SCT250 19/08 Q1020 NOSIG cycle: 14
Sunrise: 05:15 Sunset: 17:22 (UTC)

Vancouver International Air-Port, B. C., Canada (CYVR) 49-11N 123-10W 2M Sep 21, 2017 - 10:00 AM EDT / 2017.09.21 1400 UTC
Wind: from the ESE (110 degrees) at 3 MPH (3 KT):0
Visibility: 30 mile(s):0
Sky conditions: mostly cloudy Temperature: 50 F (10 C) Dew Point: 46 F (8 C) Relative Humidity: 87% Pressure (altimeter): 29.9 in. Hg (1012 hPa)
ob: CYVR 211400Z 11003KT 30SM FEW035 FEW120 BKN180 BKN250 10/08 A2990 RMK CF1AC1AC3CI2 SLP128 cycle: 14
Sunrise: 14:02 Sunset: 02:08 (UTC)

TAF:2017/09/21 12:39 TAF CYVR 211138Z 2112/2218 08007KT P6SM SCT030 BKN120 TEMPO 2112/2118 BKN030 OVC060 FM211800 08005KT P6SM FEW030 SCT100 BECMG 2118/2120 28008KT FM220000 28010KT P6SM SCT100 BECMG 2204/2206 08005KT RMK NXT FCST BY 211500Z

Previous Pireps for this route
Date Aircraft Flight time Fuel used Landing rate On time
2013-06-03A330-20011.03141838-338Charter
2013-07-08B77711.00179441-261Charter
2016-12-29B74711.032045590Yes
(pireps marked green are flown by you)

Route map